createdAt,value
2022-12-23T00:00:43.920Z,96151.16
2022-12-23T00:03:10.455Z,96149.78
2022-12-23T00:05:38.131Z,96152.97
2022-12-23T00:08:04.764Z,96162.88
2022-12-23T00:10:31.174Z,96162.97
2022-12-23T00:12:57.526Z,96154.84
2022-12-23T00:15:23.857Z,96149.69
2022-12-23T00:17:50.213Z,96142.72
2022-12-23T00:20:16.551Z,96139.38
2022-12-23T00:22:42.940Z,96128.53
2022-12-23T00:25:09.295Z,96128.03
2022-12-23T00:27:37.675Z,96117.34
2022-12-23T00:30:04.303Z,96121.03
2022-12-23T00:32:30.692Z,96123.81
2022-12-23T00:34:57.077Z,96120.69
2022-12-23T00:37:23.423Z,96125.94
2022-12-23T00:39:54.800Z,96119.59
2022-12-23T00:42:21.515Z,96128.03
2022-12-23T00:44:47.869Z,96115.47
2022-12-23T00:47:14.275Z,96110.97
2022-12-23T00:49:40.677Z,96114.34
2022-12-23T00:52:07.063Z,96105.34
2022-12-23T00:54:33.411Z,96116.47
2022-12-23T00:56:59.758Z,96123.31
2022-12-23T00:59:26.120Z,96123.25
2022-12-23T01:01:52.578Z,96125.81
2022-12-23T01:04:19.065Z,96132.75
2022-12-23T01:06:45.401Z,96121.59
2022-12-23T01:09:11.726Z,96125.56
2022-12-23T01:11:38.114Z,96131.00
2022-12-23T01:14:04.500Z,96136.47
2022-12-23T01:16:30.896Z,96139.28
2022-12-23T01:18:57.247Z,96138.97
2022-12-23T01:21:23.596Z,96130.44
2022-12-23T01:23:50.004Z,96132.22
2022-12-23T01:26:16.430Z,96134.75
2022-12-23T01:28:42.773Z,96123.41
2022-12-23T01:31:09.149Z,96133.88
2022-12-23T01:33:35.560Z,96141.16
2022-12-23T01:36:01.958Z,96134.50
2022-12-23T01:38:28.299Z,96137.19
2022-12-23T01:40:54.632Z,96134.88
2022-12-23T01:43:20.987Z,96132.09
2022-12-23T01:45:47.424Z,96144.03
2022-12-23T01:48:13.845Z,96137.97
2022-12-23T01:50:40.232Z,96141.16
2022-12-23T01:53:08.092Z,96132.88
2022-12-23T01:55:34.931Z,96133.38
2022-12-23T01:58:01.276Z,96132.78
2022-12-23T02:00:27.657Z,96144.03
2022-12-23T02:02:54.165Z,96141.84
2022-12-23T02:05:20.569Z,96134.25
2022-12-23T02:07:46.927Z,96145.66
2022-12-23T02:10:13.334Z,96145.78
2022-12-23T02:12:39.676Z,96139.25
2022-12-23T02:15:06.056Z,96127.09
2022-12-23T02:17:32.448Z,96118.97
2022-12-23T02:19:58.859Z,96133.72
2022-12-23T02:22:25.275Z,96136.25
2022-12-23T02:24:51.662Z,96148.72
2022-12-23T02:27:18.074Z,96139.28
2022-12-23T02:29:44.453Z,96135.75
2022-12-23T02:32:10.831Z,96138.16
2022-12-23T02:34:37.176Z,96131.66
2022-12-23T02:37:03.510Z,96125.09
2022-12-23T02:39:29.908Z,96134.06
2022-12-23T02:41:56.324Z,96138.34
2022-12-23T02:44:22.658Z,96129.28
2022-12-23T02:46:49.014Z,96122.66
2022-12-23T02:49:15.364Z,96120.47
2022-12-23T02:51:41.706Z,96136.88
2022-12-23T02:54:08.049Z,96145.25
2022-12-23T02:56:34.434Z,96143.53
2022-12-23T02:59:00.770Z,96141.28
2022-12-23T03:01:27.276Z,96131.09
2022-12-23T03:03:53.810Z,96140.50
2022-12-23T03:06:20.255Z,96135.97
2022-12-23T03:08:46.590Z,96133.19
2022-12-23T03:11:12.971Z,96122.75
2022-12-23T03:13:39.345Z,96112.59
2022-12-23T03:16:05.715Z,96107.81
2022-12-23T03:18:32.110Z,96126.91
2022-12-23T03:20:58.472Z,96129.72
2022-12-23T03:23:24.830Z,96130.50
2022-12-23T03:25:51.214Z,96140.88
2022-12-23T03:28:17.623Z,96131.28
2022-12-23T03:30:44.017Z,96135.53
2022-12-23T03:33:10.387Z,96132.41
2022-12-23T03:35:36.762Z,96127.09
2022-12-23T03:38:03.132Z,96119.75
2022-12-23T03:40:29.484Z,96127.16
2022-12-23T03:42:55.878Z,96124.19
2022-12-23T03:45:38.762Z,96107.97
2022-12-23T03:48:05.971Z,96120.84
2022-12-23T03:50:32.300Z,96117.66
2022-12-23T03:52:58.659Z,96120.84
2022-12-23T03:55:25.026Z,96124.56
2022-12-23T03:57:51.354Z,96117.66
2022-12-23T04:00:17.733Z,96120.84
2022-12-23T04:02:44.287Z,96127.19
2022-12-23T04:05:10.728Z,96129.25
2022-12-23T04:07:37.102Z,96126.59
2022-12-23T04:10:03.522Z,96119.50
2022-12-23T04:12:29.907Z,96120.81
2022-12-23T04:14:56.257Z,96116.63
2022-12-23T04:17:22.586Z,96119.44
2022-12-23T04:19:48.926Z,96120.31
2022-12-23T04:22:15.265Z,96120.84
2022-12-23T04:24:41.606Z,96117.72
2022-12-23T04:27:07.934Z,96119.31
2022-12-23T04:29:34.267Z,96122.72
2022-12-23T04:32:00.608Z,96118.72
2022-12-23T04:34:26.997Z,96117.22
2022-12-23T04:36:53.356Z,96121.91
2022-12-23T04:39:19.775Z,96125.59
2022-12-23T04:41:46.178Z,96131.31
2022-12-23T04:44:12.541Z,96134.44
2022-12-23T04:46:38.953Z,96135.81
2022-12-23T04:49:05.321Z,96132.88
2022-12-23T04:51:31.701Z,96132.97
2022-12-23T04:53:58.093Z,96135.00
2022-12-23T04:56:24.492Z,96137.16
2022-12-23T04:58:50.875Z,96128.19
2022-12-23T05:01:17.293Z,96126.16
2022-12-23T05:03:43.674Z,96131.13
2022-12-23T05:06:10.043Z,96125.81
2022-12-23T05:08:36.426Z,96130.75
2022-12-23T05:11:02.808Z,96127.16
2022-12-23T05:13:29.151Z,96122.53
2022-12-23T05:15:55.554Z,96130.84
2022-12-23T05:18:21.917Z,96127.53
2022-12-23T05:20:48.280Z,96133.13
2022-12-23T05:23:14.663Z,96138.94
2022-12-23T05:25:41.001Z,96134.69
2022-12-23T05:28:07.348Z,96134.94
2022-12-23T05:30:33.729Z,96147.13
2022-12-23T05:33:00.180Z,96137.63
2022-12-23T05:35:26.589Z,96118.19
2022-12-23T05:37:52.947Z,96097.09
2022-12-23T05:40:24.097Z,96115.06
2022-12-23T05:42:56.822Z,96121.94
2022-12-23T05:45:23.162Z,96116.38
2022-12-23T05:47:49.549Z,96115.38
2022-12-23T05:50:15.939Z,96118.28
2022-12-23T05:52:42.351Z,96102.44
2022-12-23T05:55:08.728Z,96105.34
2022-12-23T05:57:35.086Z,96106.66
2022-12-23T06:00:02.565Z,96116.69
2022-12-23T06:02:29.069Z,96116.16
2022-12-23T06:04:55.594Z,96117.75
